AZU8755 LEMD-SBKP
Flight info
| Callsign | AZU8755 |
|---|---|
| Flight time | N/A |
| Altitude | 34000 |
| Route | CCS DCT OGERO DCT RAKOD L14 ELVAR A975 TAGUX UN726 EVURA UN873 SOTEX UZ223 BEXAL UN866 KONBA N866 TENPA UN866 ARTIG UZ18 ROLID UN741 ERUGU UZ61 USVOL UZ30 EPKUV DCT ENTIT |
| Aircraft | A339/H-SADE1E2E3GHIJ3J5M1P2RWXY/LB2D1 |
Departure
| Time | N/A |
|---|---|
| Airport | Adolfo Suárez Madrid–Barajas Airport (LEMD) |
Arrival
| Time | 2026-04-29 14:26 |
|---|---|
| Airport | Viracopos International Airport (SBKP) |
| Time | Latitude | Longitude | Altitude | Speed | Heading |
|---|---|---|---|---|---|
| 2026-04-29 14:11 | -22.15306 | -46.64270 | 22339 ft | 412 kts | 224° |
| 2026-04-29 14:12 | -22.17530 | -46.66205 | 21408 ft | 407 kts | 224° |
| 2026-04-29 14:12 | -22.19711 | -46.68105 | 20478 ft | 402 kts | 224° |
| 2026-04-29 14:12 | -22.21868 | -46.69986 | 19560 ft | 398 kts | 224° |
| 2026-04-29 14:12 | -22.23993 | -46.71838 | 18660 ft | 393 kts | 223° |
| 2026-04-29 14:13 | -22.26095 | -46.73669 | 17765 ft | 389 kts | 223° |
| 2026-04-29 14:13 | -22.28186 | -46.75491 | 16876 ft | 385 kts | 223° |
| 2026-04-29 14:13 | -22.30253 | -46.77295 | 15984 ft | 382 kts | 223° |
| 2026-04-29 14:13 | -22.32312 | -46.79094 | 15101 ft | 378 kts | 222° |
| 2026-04-29 14:14 | -22.34343 | -46.80870 | 14239 ft | 375 kts | 221° |
| 2026-04-29 14:14 | -22.36347 | -46.82619 | 13367 ft | 372 kts | 220° |
| 2026-04-29 14:14 | -22.38354 | -46.84371 | 12489 ft | 369 kts | 220° |
| 2026-04-29 14:14 | -22.40314 | -46.86079 | 11678 ft | 364 kts | 220° |
| 2026-04-29 14:15 | -22.42250 | -46.87766 | 11213 ft | 349 kts | 220° |
| 2026-04-29 14:15 | -22.44122 | -46.89396 | 10893 ft | 338 kts | 220° |
| 2026-04-29 14:15 | -22.45932 | -46.90976 | 10571 ft | 331 kts | 220° |
| 2026-04-29 14:15 | -22.47707 | -46.92527 | 10293 ft | 329 kts | 220° |
| 2026-04-29 14:16 | -22.49474 | -46.94070 | 10101 ft | 318 kts | 220° |
| 2026-04-29 14:16 | -22.51145 | -46.95530 | 10096 ft | 297 kts | 220° |
| 2026-04-29 14:16 | -22.52726 | -46.96911 | 10114 ft | 291 kts | 220° |
| 2026-04-29 14:16 | -22.54297 | -46.98287 | 9995 ft | 290 kts | 220° |
| 2026-04-29 14:17 | -22.55876 | -46.99670 | 9708 ft | 290 kts | 220° |
| 2026-04-29 14:17 | -22.57447 | -47.01048 | 9432 ft | 290 kts | 220° |
| 2026-04-29 14:17 | -22.59017 | -47.02426 | 9164 ft | 289 kts | 220° |
| 2026-04-29 14:17 | -22.60584 | -47.03801 | 8886 ft | 288 kts | 220° |
| 2026-04-29 14:18 | -22.62137 | -47.05164 | 8618 ft | 288 kts | 220° |
| 2026-04-29 14:18 | -22.63702 | -47.06536 | 8351 ft | 288 kts | 220° |
| 2026-04-29 14:18 | -22.65273 | -47.07914 | 8076 ft | 287 kts | 220° |
| 2026-04-29 14:18 | -22.66831 | -47.09282 | 7804 ft | 287 kts | 220° |
| 2026-04-29 14:19 | -22.68391 | -47.10652 | 7535 ft | 287 kts | 221° |
| 2026-04-29 14:19 | -22.69930 | -47.12004 | 7275 ft | 286 kts | 221° |
| 2026-04-29 14:19 | -22.71497 | -47.13380 | 7011 ft | 286 kts | 221° |
| 2026-04-29 14:19 | -22.73053 | -47.14745 | 6738 ft | 286 kts | 221° |
| 2026-04-29 14:20 | -22.74598 | -47.16105 | 6473 ft | 286 kts | 221° |
| 2026-04-29 14:20 | -22.76149 | -47.17470 | 6212 ft | 285 kts | 221° |
| 2026-04-29 14:20 | -22.77677 | -47.18814 | 6009 ft | 283 kts | 221° |
| 2026-04-29 14:20 | -22.79200 | -47.20152 | 5984 ft | 272 kts | 221° |
| 2026-04-29 14:21 | -22.80655 | -47.21429 | 5979 ft | 262 kts | 221° |
| 2026-04-29 14:21 | -22.82030 | -47.22631 | 5933 ft | 254 kts | 220° |
| 2026-04-29 14:21 | -22.83438 | -47.23815 | 5647 ft | 257 kts | 220° |
| 2026-04-29 14:21 | -22.84872 | -47.25010 | 5336 ft | 259 kts | 220° |
| 2026-04-29 14:22 | -22.86292 | -47.26192 | 4988 ft | 252 kts | 219° |
| 2026-04-29 14:22 | -22.87691 | -47.27302 | 4706 ft | 244 kts | 207° |
| 2026-04-29 14:22 | -22.89294 | -47.27706 | 4420 ft | 238 kts | 173° |
| 2026-04-29 14:22 | -22.90801 | -47.27136 | 4271 ft | 222 kts | 139° |
| 2026-04-29 14:23 | -22.91851 | -47.26006 | 4317 ft | 207 kts | 126° |
| 2026-04-29 14:23 | -22.92695 | -47.24780 | 4297 ft | 195 kts | 123° |
| 2026-04-29 14:23 | -22.93476 | -47.23605 | 4102 ft | 193 kts | 124° |
| 2026-04-29 14:23 | -22.94296 | -47.22425 | 3857 ft | 194 kts | 125° |
| 2026-04-29 14:24 | -22.95121 | -47.21275 | 3618 ft | 190 kts | 125° |
| 2026-04-29 14:24 | -22.95927 | -47.20160 | 3370 ft | 184 kts | 126° |
| 2026-04-29 14:24 | -22.96707 | -47.19075 | 3133 ft | 177 kts | 126° |
| 2026-04-29 14:24 | -22.97198 | -47.18390 | 2988 ft | 172 kts | 126° |
| 2026-04-29 14:25 | -22.98825 | -47.16119 | 2510 ft | 156 kts | 124° |
| 2026-04-29 14:25 | -22.99473 | -47.15181 | 2307 ft | 155 kts | 128° |
| 2026-04-29 14:25 | -23.00153 | -47.14272 | 2189 ft | 149 kts | 127° |
| 2026-04-29 14:26 | -23.00718 | -47.13474 | 2188 ft | 105 kts | 126° |
| 2026-04-29 14:26 | -23.01065 | -47.12998 | 2189 ft | 36 kts | 128° |
| 2026-04-29 14:26 | -23.01238 | -47.12843 | 2189 ft | 28 kts | 154° |
| 2026-04-29 14:26 | -23.01347 | -47.12793 | 2189 ft | 14 kts | 165° |
| 2026-04-29 14:27 | -23.01399 | -47.12818 | 2189 ft | 8 kts | 269° |
| 2026-04-29 14:27 | -23.01371 | -47.12889 | 2189 ft | 11 kts | 303° |
| 2026-04-29 14:27 | -23.01317 | -47.12965 | 2189 ft | 13 kts | 309° |
| 2026-04-29 14:28 | -23.01178 | -47.13151 | 2189 ft | 17 kts | 308° |
| 2026-04-29 14:28 | -23.01103 | -47.13256 | 2189 ft | 17 kts | 307° |
| 2026-04-29 14:28 | -23.01030 | -47.13362 | 2188 ft | 17 kts | 307° |
| 2026-04-29 14:28 | -23.00974 | -47.13440 | 2188 ft | 6 kts | 308° |
| 2026-04-29 14:29 | -23.00942 | -47.13485 | 2188 ft | 6 kts | 308° |
| 2026-04-29 14:29 | -23.00937 | -47.13491 | 2188 ft | 1 kts | 308° |
| 2026-04-29 14:29 | -23.00928 | -47.13504 | 2188 ft | 2 kts | 308° |
| 2026-04-29 14:29 | -23.00912 | -47.13527 | 2188 ft | 4 kts | 308° |
| 2026-04-29 14:30 | -23.00888 | -47.13559 | 2188 ft | 6 kts | 308° |
| 2026-04-29 14:30 | -23.00859 | -47.13600 | 2188 ft | 7 kts | 308° |
| 2026-04-29 14:30 | -23.00826 | -47.13646 | 2188 ft | 7 kts | 307° |
| 2026-04-29 14:30 | -23.00792 | -47.13694 | 2188 ft | 8 kts | 307° |
| 2026-04-29 14:31 | -23.00755 | -47.13746 | 2188 ft | 9 kts | 307° |
| 2026-04-29 14:31 | -23.00711 | -47.13808 | 2188 ft | 11 kts | 308° |
| 2026-04-29 14:31 | -23.00655 | -47.13880 | 2188 ft | 13 kts | 311° |
| 2026-04-29 14:31 | -23.00597 | -47.13964 | 2188 ft | 14 kts | 305° |
| 2026-04-29 14:32 | -23.00536 | -47.14053 | 2188 ft | 15 kts | 308° |
| 2026-04-29 14:32 | -23.00471 | -47.14145 | 2187 ft | 15 kts | 307° |
| 2026-04-29 14:32 | -23.00409 | -47.14232 | 2187 ft | 13 kts | 308° |
| 2026-04-29 14:32 | -23.00350 | -47.14312 | 2187 ft | 13 kts | 308° |
| 2026-04-29 14:33 | -23.00297 | -47.14387 | 2187 ft | 12 kts | 307° |
| 2026-04-29 14:33 | -23.00246 | -47.14457 | 2187 ft | 11 kts | 308° |
| 2026-04-29 14:33 | -23.00203 | -47.14528 | 2187 ft | 10 kts | 288° |
| 2026-04-29 14:33 | -23.00220 | -47.14592 | 2187 ft | 7 kts | 245° |
| 2026-04-29 14:34 | -23.00235 | -47.14647 | 2187 ft | 7 kts | 247° |
| 2026-04-29 14:34 | -23.00263 | -47.14684 | 2187 ft | 4 kts | 222° |
| 2026-04-29 14:34 | -23.00268 | -47.14688 | 2187 ft | 0 kts | 221° |